Time;durP1;ratioP1;P1;durP2;ratioP2;P2;SDS_P1;SDS_P2;PMS_P1;PMS_P2;Temp;Humidity;BMP_temperature;BMP_pressure;BME280_temperature;BME280_humidity;BME280_pressure;Samples;Min_cycle;Max_cycle;Signal;HPM_P1;HPM_P2
2024/01/24 00:01:07;;;;;;;14.25;2.50;;;11.60;99.90;;;;;;6270237;22;20047;-78
2024/01/24 00:03:33;;;;;;;13.68;3.15;;;11.70;99.90;;;;;;6269787;22;20045;-78
2024/01/24 00:05:58;;;;;;;14.65;3.72;;;11.80;99.90;;;;;;6270277;22;20052;-78
2024/01/24 00:08:24;;;;;;;11.23;2.78;;;10.80;99.90;;;;;;6270007;22;20011;-78
2024/01/24 00:10:50;;;;;;;18.00;2.75;;;11.60;99.90;;;;;;6244744;22;20019;-77
2024/01/24 00:13:16;;;;;;;16.65;3.42;;;10.80;99.90;;;;;;6268085;22;20305;-78
2024/01/24 00:15:41;;;;;;;16.48;3.55;;;10.80;99.90;;;;;;6268327;22;20016;-78
2024/01/24 00:18:07;;;;;;;16.00;2.92;;;10.70;99.90;;;;;;6267807;22;20016;-77
2024/01/24 00:20:33;;;;;;;23.27;3.80;;;11.90;99.90;;;;;;6268668;22;20768;-78
2024/01/24 00:22:59;;;;;;;22.33;3.47;;;11.90;99.90;;;;;;6268792;22;20039;-78
2024/01/24 00:25:24;;;;;;;20.20;3.30;;;11.60;99.90;;;;;;6269059;22;20019;-77
2024/01/24 00:27:50;;;;;;;21.70;3.47;;;11.30;99.90;;;;;;6268529;22;20015;-78
2024/01/24 00:30:15;;;;;;;19.83;3.50;;;11.70;99.90;;;;;;6269527;22;20015;-78
2024/01/24 00:32:41;;;;;;;14.98;3.35;;;11.70;99.90;;;;;;6269769;22;20003;-78
2024/01/24 00:35:07;;;;;;;18.58;3.63;;;11.70;99.90;;;;;;6269873;22;20050;-78
2024/01/24 00:37:33;;;;;;;21.25;3.67;;;11.00;99.90;;;;;;6269082;22;20356;-78
2024/01/24 00:39:58;;;;;;;18.23;3.92;;;10.90;99.90;;;;;;6269809;22;20015;-78
2024/01/24 00:42:24;;;;;;;18.58;2.92;;;11.60;99.90;;;;;;6243022;22;20066;-78
2024/01/24 00:44:51;;;;;;;20.23;3.63;;;10.80;99.90;;;;;;6268323;22;20091;-78
2024/01/24 00:47:20;;;;;;;19.35;4.00;;;11.70;99.90;;;;;;6269592;22;20664;-78
2024/01/24 00:49:46;;;;;;;19.77;3.47;;;10.90;99.90;;;;;;6244352;22;20015;-78
2024/01/24 00:52:12;;;;;;;13.15;3.00;;;10.90;99.90;;;;;;6268446;22;20019;-79
2024/01/24 00:54:38;;;;;;;20.10;3.92;;;11.60;99.90;;;;;;6269900;22;20065;-80
2024/01/24 00:57:04;;;;;;;23.55;3.60;;;11.10;99.90;;;;;;6269035;22;20011;-80
2024/01/24 00:59:29;;;;;;;19.52;3.38;;;11.70;99.90;;;;;;6268778;22;20008;-80
2024/01/24 01:01:55;;;;;;;18.00;3.58;;;10.90;99.90;;;;;;6269327;22;20371;-79
2024/01/24 01:04:21;;;;;;;17.40;3.28;;;10.90;99.90;;;;;;6269404;22;20058;-77
2024/01/24 01:06:47;;;;;;;19.15;3.35;;;11.50;99.90;;;;;;6269477;22;20094;-78
2024/01/24 01:09:12;;;;;;;17.15;3.75;;;11.40;99.90;;;;;;6269525;22;20019;-78
2024/01/24 01:11:38;;;;;;;20.65;4.35;;;11.50;99.90;;;;;;6268550;22;20024;-77
2024/01/24 01:14:04;;;;;;;14.38;2.92;;;11.40;99.90;;;;;;6268549;22;20019;-78
2024/01/24 01:16:29;;;;;;;16.13;2.63;;;11.60;99.90;;;;;;6269681;22;20019;-78
2024/01/24 01:18:55;;;;;;;16.95;2.70;;;11.70;99.90;;;;;;6269601;22;20043;-79
2024/01/24 01:21:21;;;;;;;12.07;2.50;;;11.30;99.90;;;;;;6269161;22;20022;-79
2024/01/24 01:23:46;;;;;;;17.77;2.90;;;11.70;99.90;;;;;;6243677;22;20130;-80
2024/01/24 01:26:12;;;;;;;17.27;3.00;;;10.60;99.90;;;;;;6268705;22;20370;-80
2024/01/24 01:28:38;;;;;;;15.77;3.10;;;10.80;99.90;;;;;;6268979;22;20618;-79
2024/01/24 01:31:04;;;;;;;17.20;2.97;;;11.30;99.90;;;;;;6243318;22;20019;-79
2024/01/24 01:33:30;;;;;;;10.20;2.50;;;11.60;99.90;;;;;;6269643;22;20046;-80
2024/01/24 01:35:55;;;;;;;14.60;2.83;;;11.80;99.90;;;;;;6243936;22;20448;-80
2024/01/24 01:38:21;;;;;;;18.48;2.90;;;11.80;99.90;;;;;;6269166;22;20037;-80
2024/01/24 01:40:46;;;;;;;18.52;3.53;;;11.40;99.90;;;;;;6268589;22;20012;-80
2024/01/24 01:43:13;;;;;;;13.80;2.50;;;11.50;99.90;;;;;;6268668;22;20050;-80
2024/01/24 01:45:40;;;;;;;17.13;2.88;;;11.60;99.90;;;;;;6269338;22;20012;-80
2024/01/24 01:48:07;;;;;;;11.38;2.40;;;11.60;99.90;;;;;;6269375;22;20012;-80
2024/01/24 01:50:33;;;;;;;15.95;2.38;;;11.30;99.90;;;;;;6268923;22;20043;-79
2024/01/24 01:52:59;;;;;;;10.68;2.50;;;11.30;99.90;;;;;;6268886;22;20444;-79
2024/01/24 01:55:24;;;;;;;12.70;2.45;;;11.90;99.90;;;;;;6268541;22;20436;-78
2024/01/24 01:57:50;;;;;;;12.05;2.33;;;11.80;99.90;;;;;;6243095;22;20015;-79
2024/01/24 02:00:20;;;;;;;15.27;2.47;;;11.90;99.90;;;;;;6268936;22;20015;-79
2024/01/24 02:02:49;;;;;;;12.75;2.17;;;11.40;99.90;;;;;;6270943;22;20083;-79
2024/01/24 02:05:15;;;;;;;12.65;2.40;;;11.60;99.90;;;;;;6269079;22;20061;-79
2024/01/24 02:07:44;;;;;;;11.98;2.05;;;11.50;99.90;;;;;;6268765;22;20008;-79
2024/01/24 02:10:14;;;;;;;17.25;2.50;;;11.50;99.90;;;;;;6242283;22;20046;-79
2024/01/24 02:12:43;;;;;;;7.82;1.90;;;11.50;99.90;;;;;;6267842;22;20016;-78
2024/01/24 02:15:09;;;;;;;9.00;2.20;;;11.80;99.90;;;;;;6243191;22;20018;-78
2024/01/24 02:17:35;;;;;;;8.77;1.90;;;11.80;99.90;;;;;;6269058;22;20497;-78
2024/01/24 02:20:02;;;;;;;10.10;1.70;;;11.50;99.90;;;;;;6243124;22;20016;-78
2024/01/24 02:22:27;;;;;;;10.98;2.10;;;11.80;99.90;;;;;;6268160;22;20043;-78
2024/01/24 02:24:53;;;;;;;12.25;2.20;;;11.60;99.90;;;;;;6269354;22;20512;-79
2024/01/24 02:27:19;;;;;;;10.45;1.95;;;11.80;99.90;;;;;;6268857;22;20020;-78
2024/01/24 02:29:44;;;;;;;14.15;2.97;;;11.80;99.90;;;;;;6268443;22;20008;-78
2024/01/24 02:32:10;;;;;;;8.85;1.83;;;11.90;99.90;;;;;;6243454;22;20420;-79
2024/01/24 02:34:35;;;;;;;12.23;2.28;;;11.90;99.90;;;;;;6268335;22;20012;-80
2024/01/24 02:37:01;;;;;;;14.57;2.38;;;12.00;99.90;;;;;;6268117;22;20375;-80
2024/01/24 02:39:26;;;;;;;11.82;1.88;;;12.00;99.90;;;;;;6268132;22;20007;-79
2024/01/24 02:41:53;;;;;;;9.02;2.05;;;11.90;99.90;;;;;;6243368;22;20019;-80
2024/01/24 02:44:18;;;;;;;9.90;2.00;;;11.90;99.90;;;;;;6268009;22;20054;-79
2024/01/24 02:46:44;;;;;;;8.88;1.70;;;11.80;99.90;;;;;;6268319;22;20704;-80
2024/01/24 02:49:10;;;;;;;15.02;2.20;;;11.80;99.90;;;;;;6268369;22;20021;-79
2024/01/24 02:51:36;;;;;;;;;;;12.00;99.90;;;;;;6268392;22;20028;-79
2024/01/24 02:54:02;;;;;;;9.32;1.88;;;11.90;99.90;;;;;;6268520;22;20419;-79
2024/01/24 02:56:27;;;;;;;12.65;2.55;;;12.00;99.90;;;;;;6268520;22;20121;-79
2024/01/24 02:58:53;;;;;;;13.77;2.63;;;12.00;99.90;;;;;;6267692;22;20106;-78
2024/01/24 03:01:18;;;;;;;14.30;2.38;;;11.90;99.90;;;;;;6242075;22;20051;-79
2024/01/24 03:03:44;;;;;;;9.40;2.38;;;12.00;99.90;;;;;;6267363;22;20226;-79
2024/01/24 03:06:10;;;;;;;14.43;2.35;;;11.90;99.90;;;;;;6266120;22;20126;-79
2024/01/24 03:08:51;;;;;;;19.52;2.53;;;11.90;99.90;;;;;;6267822;22;20015;-79
2024/01/24 03:11:17;;;;;;;13.82;2.88;;;11.90;99.90;;;;;;6268418;22;20467;-78
2024/01/24 03:13:43;;;;;;;14.93;2.50;;;11.70;99.90;;;;;;6268052;22;20086;-79
2024/01/24 03:16:09;;;;;;;17.80;2.83;;;11.80;99.90;;;;;;6268409;22;20008;-79
2024/01/24 03:18:37;;;;;;;16.92;3.30;;;11.60;99.90;;;;;;6267994;22;20467;-79
2024/01/24 03:21:05;;;;;;;20.58;3.28;;;11.60;99.90;;;;;;6267187;22;20456;-79
2024/01/24 03:23:31;;;;;;;14.27;2.97;;;11.50;99.90;;;;;;6268413;22;20018;-79
2024/01/24 03:25:56;;;;;;;14.30;3.20;;;11.50;99.90;;;;;;6268374;22;20015;-79
2024/01/24 03:28:22;;;;;;;13.90;2.53;;;11.60;99.90;;;;;;6267772;22;20020;-79
2024/01/24 03:30:47;;;;;;;19.85;3.80;;;11.50;99.90;;;;;;6267861;22;20011;-79
2024/01/24 03:33:13;;;;;;;21.23;3.60;;;11.30;99.90;;;;;;6268354;22;20008;-79
2024/01/24 03:35:39;;;;;;;17.70;3.80;;;11.40;99.90;;;;;;6267874;22;20012;-78
2024/01/24 03:38:04;;;;;;;18.75;3.70;;;11.20;99.90;;;;;;6268245;22;20467;-79
2024/01/24 03:40:30;;;;;;;19.33;4.03;;;11.30;99.90;;;;;;6268355;22;20015;-79
2024/01/24 03:42:56;;;;;;;19.83;3.28;;;11.20;99.90;;;;;;6242380;22;20110;-78
2024/01/24 03:45:22;;;;;;;18.45;3.90;;;11.30;99.90;;;;;;6268418;22;20027;-78
2024/01/24 03:47:49;;;;;;;22.85;4.18;;;11.30;99.90;;;;;;6268569;22;20015;-78
2024/01/24 03:50:15;;;;;;;18.83;3.55;;;11.30;99.90;;;;;;6267779;22;20348;-76
2024/01/24 03:52:40;;;;;;;15.52;3.42;;;11.40;99.90;;;;;;6268116;22;20018;-76
2024/01/24 03:55:07;;;;;;;15.43;3.22;;;11.50;99.90;;;;;;6242713;22;20012;-77
2024/01/24 03:57:32;;;;;;;20.05;3.53;;;11.40;99.90;;;;;;6267666;22;20007;-77
2024/01/24 03:59:58;;;;;;;17.55;3.28;;;11.50;99.90;;;;;;6268430;22;20051;-77
2024/01/24 04:02:23;;;;;;;20.63;3.90;;;11.40;99.90;;;;;;6267551;22;20019;-77
2024/01/24 04:04:49;;;;;;;17.17;3.00;;;11.40;99.90;;;;;;6267179;22;20340;-76
2024/01/24 04:07:15;;;;;;;26.58;4.93;;;11.60;99.90;;;;;;6268227;22;20024;-77
2024/01/24 04:09:40;;;;;;;19.95;3.78;;;11.50;99.90;;;;;;6268103;22;20015;-77
2024/01/24 04:12:06;;;;;;;23.17;4.20;;;11.60;99.90;;;;;;6268198;22;20425;-77
2024/01/24 04:14:31;;;;;;;29.60;4.50;;;11.40;99.90;;;;;;6267764;22;20369;-77
2024/01/24 04:16:57;;;;;;;21.35;3.88;;;11.50;99.90;;;;;;6270034;22;20103;-77
2024/01/24 04:19:23;;;;;;;22.45;4.25;;;11.40;99.90;;;;;;6267804;22;20018;-77
2024/01/24 04:21:49;;;;;;;26.15;4.22;;;11.20;99.90;;;;;;6270110;22;20020;-77
2024/01/24 04:24:15;;;;;;;22.50;4.60;;;11.10;99.90;;;;;;6270091;22;20084;-76
2024/01/24 04:26:42;;;;;;;28.63;3.78;;;11.00;99.90;;;;;;6270111;22;20019;-77
2024/01/24 04:29:08;;;;;;;17.75;4.00;;;10.90;99.90;;;;;;6271731;22;20310;-76
2024/01/24 04:31:33;;;;;;;24.55;4.55;;;11.00;99.90;;;;;;6272047;22;20007;-77
2024/01/24 04:33:59;;;;;;;21.50;4.20;;;11.00;99.90;;;;;;6269485;22;20046;-76
2024/01/24 04:36:24;;;;;;;22.90;4.15;;;10.90;99.90;;;;;;6270025;22;20019;-76
2024/01/24 04:38:50;;;;;;;25.85;4.40;;;10.80;99.90;;;;;;6269970;22;20020;-77
2024/01/24 04:41:16;;;;;;;27.63;4.75;;;10.80;99.90;;;;;;6269848;22;20016;-76
2024/01/24 04:43:41;;;;;;;23.77;5.05;;;10.70;99.90;;;;;;6269284;22;20019;-77
2024/01/24 04:46:14;;;;;;;25.60;4.13;;;10.80;99.90;;;;;;6271606;22;20011;-77
2024/01/24 04:48:41;;;;;;;27.48;5.43;;;10.80;99.90;;;;;;6269031;22;20126;-76
2024/01/24 04:51:07;;;;;;;23.10;4.63;;;10.80;99.90;;;;;;6269765;22;20073;-76
2024/01/24 04:53:33;;;;;;;33.20;4.82;;;10.80;99.90;;;;;;6269776;22;20011;-76
2024/01/24 04:55:59;;;;;;;25.77;4.93;;;10.80;99.90;;;;;;6269498;22;20024;-76
2024/01/24 04:58:25;;;;;;;26.42;4.80;;;10.90;99.90;;;;;;6271173;22;20324;-77
2024/01/24 05:00:51;;;;;;;27.20;5.85;;;10.80;99.90;;;;;;6268270;22;20441;-77
2024/01/24 05:03:16;;;;;;;24.05;5.07;;;10.90;99.90;;;;;;6269385;22;20042;-75
2024/01/24 05:05:42;;;;;;;30.40;5.00;;;10.90;99.90;;;;;;6268398;22;20059;-76
2024/01/24 05:08:07;;;;;;;31.65;5.43;;;10.90;99.90;;;;;;6268833;22;20031;-76
2024/01/24 05:10:33;;;;;;;24.23;4.82;;;10.90;99.90;;;;;;6266485;22;20018;-75
2024/01/24 05:12:59;;;;;;;24.42;5.57;;;11.00;99.90;;;;;;6268363;22;20069;-76
2024/01/24 05:15:24;;;;;;;32.00;5.53;;;10.90;99.90;;;;;;6269020;22;20012;-75
2024/01/24 05:17:50;;;;;;;29.70;5.70;;;10.80;99.90;;;;;;6268488;22;20070;-75
2024/01/24 05:20:17;;;;;;;28.08;5.32;;;10.90;99.90;;;;;;6266294;22;20050;-77
2024/01/24 05:22:43;;;;;;;35.33;5.93;;;10.80;99.90;;;;;;6269067;22;20019;-76
2024/01/24 05:25:09;;;;;;;;;;;10.90;99.90;;;;;;6269334;22;20020;-76
2024/01/24 05:27:35;;;;;;;33.33;5.85;;;10.80;99.90;;;;;;6269501;22;20324;-76
2024/01/24 05:30:01;;;;;;;31.60;6.82;;;10.90;99.90;;;;;;6267821;22;20018;-76
2024/01/24 05:32:26;;;;;;;31.67;6.18;;;10.90;99.90;;;;;;6267554;22;20383;-76
2024/01/24 05:34:52;;;;;;;27.40;5.13;;;10.80;99.90;;;;;;6268863;22;20019;-76
2024/01/24 05:37:17;;;;;;;29.77;6.30;;;10.90;99.90;;;;;;6242642;22;20441;-76
2024/01/24 05:39:43;;;;;;;34.17;6.50;;;10.90;99.90;;;;;;6266801;22;20720;-76
2024/01/24 05:42:09;;;;;;;31.35;5.88;;;10.90;99.90;;;;;;6269554;22;20020;-76
2024/01/24 05:44:34;;;;;;;34.25;6.22;;;10.90;99.90;;;;;;6269964;22;20043;-76
2024/01/24 05:47:00;;;;;;;36.33;6.47;;;10.80;99.90;;;;;;6270958;22;20016;-76
2024/01/24 05:49:26;;;;;;;38.97;6.93;;;10.70;99.90;;;;;;6271013;22;20023;-76
2024/01/24 05:51:52;;;;;;;41.33;7.53;;;10.70;99.90;;;;;;6271331;22;20011;-76
2024/01/24 05:54:17;;;;;;;36.78;6.57;;;10.70;99.90;;;;;;6271327;22;20011;-76
2024/01/24 05:56:43;;;;;;;33.08;6.05;;;10.70;99.90;;;;;;6270915;22;20340;-75
2024/01/24 05:59:09;;;;;;;33.08;6.10;;;10.60;99.90;;;;;;6268679;22;20020;-76
2024/01/24 06:01:35;;;;;;;40.03;7.03;;;10.70;99.90;;;;;;6270160;22;20095;-76
2024/01/24 06:04:01;;;;;;;36.97;6.50;;;10.70;99.90;;;;;;6269627;22;20443;-76
2024/01/24 06:06:26;;;;;;;36.88;6.30;;;10.60;99.90;;;;;;6268501;22;20429;-76
2024/01/24 06:08:52;;;;;;;27.63;5.53;;;10.60;99.90;;;;;;6268400;22;20068;-76
2024/01/24 06:11:18;;;;;;;29.88;6.47;;;10.60;99.90;;;;;;6268730;22;20065;-76
2024/01/24 06:13:43;;;;;;;41.95;6.85;;;10.70;99.90;;;;;;6268351;22;20059;-76
2024/01/24 06:16:09;;;;;;;34.28;6.40;;;10.70;99.90;;;;;;6268228;22;20019;-76
2024/01/24 06:18:35;;;;;;;37.28;7.70;;;10.50;99.90;;;;;;6268995;22;20012;-76
2024/01/24 06:21:01;;;;;;;38.42;6.00;;;10.50;99.90;;;;;;6270238;22;20043;-76
2024/01/24 06:23:26;;;;;;;35.58;6.95;;;10.50;99.90;;;;;;6270584;22;20310;-76
2024/01/24 06:25:52;;;;;;;34.00;6.72;;;10.50;99.90;;;;;;6270747;22;20322;-76
2024/01/24 06:28:17;;;;;;;38.88;7.47;;;10.50;99.90;;;;;;6269985;22;20050;-77
2024/01/24 06:30:43;;;;;;;36.40;7.22;;;10.50;99.90;;;;;;6267946;22;20081;-76
2024/01/24 06:33:09;;;;;;;36.80;6.50;;;10.40;99.90;;;;;;6268308;22;20125;-76
2024/01/24 06:35:34;;;;;;;36.70;7.38;;;10.40;99.90;;;;;;6268490;22;20051;-76
2024/01/24 06:38:01;;;;;;;23.45;5.75;;;10.40;99.90;;;;;;6270128;22;20015;-76
2024/01/24 06:40:26;;;;;;;34.20;6.38;;;10.30;99.90;;;;;;6270138;22;20019;-75
2024/01/24 06:42:52;;;;;;;37.08;6.82;;;10.30;99.90;;;;;;6266881;22;20742;-75
2024/01/24 06:45:18;;;;;;;30.10;6.57;;;10.30;99.90;;;;;;6267633;22;20015;-76
2024/01/24 06:47:44;;;;;;;25.92;5.53;;;10.30;99.90;;;;;;6242385;22;20022;-75
2024/01/24 06:50:13;;;;;;;39.05;7.32;;;10.30;99.90;;;;;;6242610;22;20049;-76
2024/01/24 06:52:40;;;;;;;35.20;5.65;;;10.30;99.90;;;;;;6268210;22;20034;-76
2024/01/24 06:55:06;;;;;;;35.97;7.07;;;10.20;99.90;;;;;;6268328;22;20012;-76
2024/01/24 06:57:31;;;;;;;32.08;6.50;;;10.20;99.90;;;;;;6268420;22;20050;-76
2024/01/24 06:59:57;;;;;;;29.48;6.75;;;10.20;99.90;;;;;;6269676;22;20012;-76
2024/01/24 07:02:22;;;;;;;34.33;6.55;;;10.20;99.90;;;;;;6267602;22;20038;-76
2024/01/24 07:04:48;;;;;;;30.60;6.82;;;10.30;99.90;;;;;;6266158;22;20062;-76
2024/01/24 07:07:14;;;;;;;29.98;5.72;;;10.30;99.90;;;;;;6266860;22;20031;-76
2024/01/24 07:09:40;;;;;;;;;;;10.20;99.90;;;;;;6242905;22;20015;-76
2024/01/24 07:12:06;;;;;;;38.60;6.20;;;10.30;99.90;;;;;;6268455;22;19915;-76
2024/01/24 07:14:31;;;;;;;34.92;6.45;;;10.30;99.90;;;;;;6265321;22;20083;-76
2024/01/24 07:16:57;;;;;;;32.92;6.43;;;10.30;99.90;;;;;;6243173;22;20058;-76
2024/01/24 07:19:22;;;;;;;28.08;6.78;;;10.30;99.90;;;;;;6267776;22;20046;-76
2024/01/24 07:21:48;;;;;;;28.25;5.93;;;10.20;99.90;;;;;;6268353;22;20020;-77
2024/01/24 07:24:14;;;;;;;33.75;6.90;;;10.30;99.90;;;;;;6267900;22;20015;-77
2024/01/24 07:26:39;;;;;;;25.85;5.25;;;10.30;99.90;;;;;;6269701;22;20019;-77
2024/01/24 07:29:05;;;;;;;31.15;6.07;;;10.20;99.90;;;;;;6267034;22;20026;-77
2024/01/24 07:31:30;;;;;;;28.30;5.55;;;10.20;99.90;;;;;;6268126;22;20709;-77
2024/01/24 07:33:56;;;;;;;29.77;5.68;;;10.10;99.90;;;;;;6269195;22;20022;-77
2024/01/24 07:36:22;;;;;;;33.72;7.07;;;10.10;99.90;;;;;;6268021;22;20018;-78
2024/01/24 07:38:48;;;;;;;27.42;5.70;;;10.10;99.90;;;;;;6267821;22;20035;-79
2024/01/24 07:41:14;;;;;;;28.67;6.13;;;10.00;99.90;;;;;;6267493;22;20112;-77
2024/01/24 07:43:40;;;;;;;;;;;10.10;99.90;;;;;;6267211;22;20016;-77
2024/01/24 07:46:06;;;;;;;28.02;5.55;;;10.20;99.90;;;;;;6267204;22;20002;-77
2024/01/24 07:48:31;;;;;;;31.77;7.38;;;10.10;99.90;;;;;;6266749;22;20015;-78
2024/01/24 07:50:57;;;;;;;31.02;6.47;;;10.00;99.90;;;;;;6267719;22;20015;-77
2024/01/24 07:53:25;;;;;;;34.33;6.70;;;10.10;99.90;;;;;;6267638;22;20015;-78
2024/01/24 07:55:51;;;;;;;34.60;6.38;;;10.00;99.90;;;;;;6269386;22;20057;-78
2024/01/24 07:58:17;;;;;;;30.85;6.32;;;10.00;99.90;;;;;;6268779;22;20016;-78
2024/01/24 08:00:42;;;;;;;32.28;6.22;;;10.00;99.90;;;;;;6245066;22;20024;-78
2024/01/24 08:03:08;;;;;;;34.58;6.55;;;10.00;99.90;;;;;;6270254;22;20012;-78
2024/01/24 08:05:34;;;;;;;36.08;6.13;;;9.90;99.90;;;;;;6271149;22;20077;-78
2024/01/24 08:08:01;;;;;;;37.08;7.03;;;10.00;99.90;;;;;;6271492;22;20661;-78
2024/01/24 08:10:27;;;;;;;33.40;6.00;;;10.00;99.90;;;;;;6269639;22;20055;-78
2024/01/24 08:12:53;;;;;;;35.22;6.65;;;10.00;99.90;;;;;;6271676;22;20082;-78
2024/01/24 08:15:18;;;;;;;34.90;7.53;;;10.00;99.90;;;;;;6270289;22;20015;-78
2024/01/24 08:17:45;;;;;;;31.00;6.25;;;10.00;99.90;;;;;;6272156;22;20026;-78
2024/01/24 08:20:11;;;;;;;33.97;6.90;;;10.00;99.90;;;;;;6271871;22;20016;-78
2024/01/24 08:22:37;;;;;;;40.97;7.50;;;10.00;99.90;;;;;;6270007;22;20818;-78
2024/01/24 08:25:03;;;;;;;30.40;6.05;;;10.00;99.90;;;;;;6243358;22;20027;-78
2024/01/24 08:27:29;;;;;;;33.55;6.78;;;10.00;99.90;;;;;;6270818;22;20022;-78
2024/01/24 08:29:54;;;;;;;30.67;6.38;;;10.10;99.90;;;;;;6272009;22;20020;-78
2024/01/24 08:32:20;;;;;;;37.83;6.55;;;10.00;99.90;;;;;;6271732;22;20047;-79
2024/01/24 08:34:47;;;;;;;34.22;6.53;;;10.00;99.90;;;;;;6271191;22;20019;-79
2024/01/24 08:37:12;;;;;;;35.88;7.05;;;9.90;99.90;;;;;;6272150;22;20018;-79
2024/01/24 08:39:39;;;;;;;35.53;6.90;;;10.00;99.90;;;;;;6269192;22;20016;-79
2024/01/24 08:42:05;;;;;;;30.75;6.13;;;9.90;99.90;;;;;;6270216;22;20015;-78
2024/01/24 08:44:31;;;;;;;30.85;5.90;;;9.90;99.90;;;;;;6243778;22;20042;-79
2024/01/24 08:46:56;;;;;;;30.45;6.78;;;9.90;99.90;;;;;;6270006;22;20019;-79
2024/01/24 08:49:22;;;;;;;26.52;5.05;;;9.90;99.90;;;;;;6269912;22;20026;-79
2024/01/24 08:51:48;;;;;;;30.73;5.88;;;9.90;99.90;;;;;;6270013;22;20012;-79
2024/01/24 08:54:13;;;;;;;39.40;7.22;;;9.90;99.90;;;;;;6271069;22;20349;-79
2024/01/24 08:56:39;;;;;;;31.73;6.82;;;9.90;99.90;;;;;;6271439;22;20050;-79
2024/01/24 08:59:04;;;;;;;42.00;7.38;;;9.90;99.90;;;;;;6269566;22;20433;-79
2024/01/24 09:01:30;;;;;;;30.77;5.90;;;9.80;99.90;;;;;;6269929;22;20019;-79
2024/01/24 09:03:56;;;;;;;34.85;5.97;;;9.90;99.90;;;;;;6269411;22;20046;-79
2024/01/24 09:06:22;;;;;;;31.58;5.72;;;9.90;99.90;;;;;;6270800;22;20463;-78
2024/01/24 09:08:52;;;;;;;32.17;6.90;;;9.90;99.90;;;;;;6267344;22;20078;-77
2024/01/24 09:11:21;;;;;;;34.95;7.03;;;10.00;99.90;;;;;;6270723;22;20016;-78
2024/01/24 09:13:47;;;;;;;34.25;6.70;;;10.00;99.90;;;;;;6269202;22;20023;-78
2024/01/24 09:16:14;;;;;;;27.90;5.65;;;10.00;99.90;;;;;;6243726;22;20054;-78
2024/01/24 09:18:39;;;;;;;;;;;10.00;99.90;;;;;;6272135;22;20157;-78
2024/01/24 09:21:05;;;;;;;37.80;5.90;;;9.90;99.90;;;;;;6271620;22;19911;-78
2024/01/24 09:23:31;;;;;;;29.05;6.25;;;10.00;99.90;;;;;;6271061;22;20008;-78
2024/01/24 09:25:57;;;;;;;32.83;7.25;;;9.90;99.90;;;;;;6269614;22;20035;-78
2024/01/24 09:28:22;;;;;;;34.47;7.95;;;10.00;99.90;;;;;;6268961;22;20019;-78
2024/01/24 09:30:48;;;;;;;33.63;6.80;;;10.00;99.90;;;;;;6269471;22;20494;-77
2024/01/24 09:33:13;;;;;;;29.85;6.07;;;10.10;99.90;;;;;;6271406;22;20026;-78
2024/01/24 09:35:40;;;;;;;35.20;6.20;;;10.10;99.90;;;;;;6269206;22;20412;-78
2024/01/24 09:38:06;;;;;;;33.13;6.10;;;10.10;99.90;;;;;;6268895;22;20007;-79
2024/01/24 09:40:32;;;;;;;32.25;6.22;;;10.10;99.90;;;;;;6269669;22;20072;-80
2024/01/24 09:43:01;;;;;;;35.22;6.40;;;10.10;99.90;;;;;;6268980;22;20026;-79
2024/01/24 09:45:28;;;;;;;28.63;5.93;;;10.10;99.90;;;;;;6269196;22;20433;-78
2024/01/24 09:47:57;;;;;;;31.77;6.47;;;10.20;99.90;;;;;;6270824;22;20008;-77
2024/01/24 09:50:24;;;;;;;36.72;6.75;;;10.20;99.90;;;;;;6269113;22;20018;-77
2024/01/24 09:52:50;;;;;;;31.48;6.15;;;10.20;99.90;;;;;;6268660;22;20091;-77
2024/01/24 09:55:18;;;;;;;36.50;6.43;;;10.20;99.90;;;;;;6243733;22;20039;-79
2024/01/24 09:57:45;;;;;;;32.78;7.70;;;10.20;99.90;;;;;;6268631;22;20322;-79
2024/01/24 10:00:14;;;;;;;28.45;5.95;;;10.20;99.90;;;;;;6268872;22;20448;-79
2024/01/24 10:02:43;;;;;;;31.98;6.60;;;10.20;99.90;;;;;;6268229;22;20016;-78
2024/01/24 10:05:13;;;;;;;39.78;7.18;;;10.20;99.90;;;;;;6268385;22;20053;-77
2024/01/24 10:07:40;;;;;;;28.65;5.75;;;10.30;99.90;;;;;;6266937;22;20011;-78
2024/01/24 10:10:09;;;;;;;29.92;5.95;;;10.30;99.90;;;;;;6267540;22;20011;-78
2024/01/24 10:12:35;;;;;;;32.60;6.05;;;10.30;99.90;;;;;;6267843;22;20026;-78
2024/01/24 10:15:01;;;;;;;41.28;6.85;;;10.30;99.90;;;;;;6268304;22;20019;-78
2024/01/24 10:17:27;;;;;;;29.83;6.88;;;10.30;99.90;;;;;;6268084;22;20340;-78
2024/01/24 10:19:53;;;;;;;28.88;5.53;;;10.40;99.90;;;;;;6270207;22;20024;-76
2024/01/24 10:22:19;;;;;;;31.67;6.10;;;10.40;99.90;;;;;;6270257;22;20031;-80
2024/01/24 10:24:45;;;;;;;27.35;6.25;;;10.40;99.90;;;;;;6268422;22;20353;-77
2024/01/24 10:27:11;;;;;;;;;;;10.40;99.90;;;;;;6268111;22;20073;-77
2024/01/24 10:29:40;;;;;;;30.65;5.57;;;10.50;99.90;;;;;;6267912;22;19917;-78
2024/01/24 10:32:12;;;;;;;34.63;6.32;;;10.60;99.90;;;;;;6268396;22;20016;-78
2024/01/24 10:34:38;;;;;;;31.95;6.30;;;10.50;99.90;;;;;;6268235;22;20018;-79
2024/01/24 10:37:07;;;;;;;30.08;5.97;;;10.60;99.90;;;;;;6267598;22;20462;-78
2024/01/24 10:39:35;;;;;;;31.88;6.13;;;10.60;99.90;;;;;;6268329;22;20019;-77
2024/01/24 10:42:04;;;;;;;29.52;5.53;;;10.60;99.90;;;;;;6268498;22;20026;-76
2024/01/24 10:44:33;;;;;;;25.25;5.05;;;10.60;99.90;;;;;;6268057;22;20446;-76
2024/01/24 10:46:59;;;;;;;31.50;5.95;;;10.60;99.90;;;;;;6268421;22;20019;-76
2024/01/24 10:49:26;;;;;;;36.20;6.55;;;10.50;99.90;;;;;;6268310;22;20337;-77
2024/01/24 10:51:52;;;;;;;30.75;5.88;;;10.50;99.90;;;;;;6269294;22;20038;-77
2024/01/24 10:54:21;;;;;;;26.80;5.50;;;10.50;99.90;;;;;;6270238;22;20016;-77
2024/01/24 10:56:49;;;;;;;29.20;7.05;;;10.50;99.90;;;;;;6268095;22;20019;-77
2024/01/24 10:59:16;;;;;;;34.53;6.72;;;10.50;99.90;;;;;;6267695;22;20123;-76
2024/01/24 11:01:42;;;;;;;31.55;6.28;;;10.50;99.90;;;;;;6267974;22;20023;-77
2024/01/24 11:04:09;;;;;;;32.67;6.20;;;10.50;99.90;;;;;;6267591;22;20020;-77
2024/01/24 11:06:42;;;;;;;34.88;5.97;;;10.60;99.90;;;;;;6267700;22;20700;-76
2024/01/24 11:09:30;;;;;;;34.78;5.63;;;10.60;99.90;;;;;;6267609;22;20019;-76
2024/01/24 11:11:58;;;;;;;25.83;6.05;;;10.60;99.90;;;;;;6267552;22;20015;-75
2024/01/24 11:14:34;;;;;;;31.05;5.38;;;10.70;99.90;;;;;;6269238;22;20014;-76
2024/01/24 11:17:03;;;;;;;27.25;5.97;;;10.70;99.90;;;;;;6266584;22;20020;-77
2024/01/24 11:19:30;;;;;;;33.78;6.57;;;10.60;99.90;;;;;;6266515;22;20016;-77
2024/01/24 11:22:08;;;;;;;29.63;5.68;;;10.60;99.90;;;;;;6268302;22;20137;-77
2024/01/24 11:24:40;;;;;;;33.40;6.13;;;10.50;99.90;;;;;;6268507;22;20012;-77
2024/01/24 11:27:33;;;;;;;26.13;5.97;;;10.60;99.90;;;;;;6268466;22;20031;-77
2024/01/24 11:30:06;;;;;;;24.27;4.97;;;10.60;99.90;;;;;;6266335;22;20020;-77
2024/01/24 11:32:55;;;;;;;33.55;5.75;;;10.60;99.90;;;;;;6272487;22;20012;-77
2024/01/24 11:35:31;;;;;;;31.30;6.40;;;10.50;99.90;;;;;;6271976;22;20355;-77
2024/01/24 11:38:21;;;;;;;27.88;5.72;;;10.50;99.90;;;;;;6272065;22;20504;-77
2024/01/24 11:40:50;;;;;;;30.88;5.93;;;10.50;99.90;;;;;;6258940;22;20026;-77
2024/01/24 11:43:29;;;;;;;30.67;5.88;;;10.50;99.90;;;;;;6269997;22;20016;-77
2024/01/24 11:45:56;;;;;;;30.00;6.80;;;10.50;99.90;;;;;;6270160;22;20061;-77
2024/01/24 11:48:26;;;;;;;28.25;6.38;;;10.50;99.90;;;;;;6269799;22;20071;-78
2024/01/24 11:51:04;;;;;;;28.23;5.63;;;10.50;99.90;;;;;;6270531;22;20025;-78
2024/01/24 11:53:30;;;;;;;30.30;5.43;;;10.50;99.90;;;;;;6272471;22;20004;-77
2024/01/24 11:56:04;;;;;;;35.60;5.93;;;10.50;99.90;;;;;;6270374;22;20344;-77
2024/01/24 11:58:30;;;;;;;27.30;5.10;;;10.50;99.90;;;;;;6269994;22;20015;-77
2024/01/24 12:01:03;;;;;;;25.13;5.68;;;10.50;99.90;;;;;;6272083;22;20016;-77
2024/01/24 12:03:30;;;;;;;27.25;5.15;;;10.50;99.90;;;;;;6269679;22;20069;-76
2024/01/24 12:05:56;;;;;;;31.35;6.03;;;10.50;99.90;;;;;;6270381;22;20027;-77
2024/01/24 12:08:22;;;;;;;28.48;5.65;;;10.40;99.90;;;;;;6269650;22;20510;-77
2024/01/24 12:10:48;;;;;;;26.58;5.55;;;10.40;99.90;;;;;;6268943;22;20511;-77
2024/01/24 12:13:14;;;;;;;32.65;5.53;;;10.50;99.90;;;;;;6267692;22;20047;-77
2024/01/24 12:15:42;;;;;;;31.73;5.90;;;10.50;99.90;;;;;;6270430;22;20086;-77
2024/01/24 12:18:18;;;;;;;26.15;5.10;;;10.50;99.90;;;;;;6269378;22;20020;-77
2024/01/24 12:20:48;;;;;;;30.90;6.30;;;10.50;99.90;;;;;;6270051;22;20027;-77
2024/01/24 12:23:14;;;;;;;32.10;5.75;;;10.50;99.90;;;;;;6270206;22;20020;-77
2024/01/24 12:25:41;;;;;;;26.67;5.50;;;10.50;99.90;;;;;;6270157;22;20061;-78
2024/01/24 12:28:08;;;;;;;30.42;5.63;;;10.50;99.90;;;;;;6271406;22;20069;-78
2024/01/24 12:30:35;;;;;;;24.02;5.35;;;10.70;99.90;;;;;;6271992;22;20077;-77
2024/01/24 12:33:04;;;;;;;27.88;5.88;;;10.70;99.90;;;;;;6271149;22;20015;-77
2024/01/24 12:35:31;;;;;;;31.20;5.85;;;10.80;99.90;;;;;;6269842;22;20428;-77